Time;durP1;ratioP1;P1;durP2;ratioP2;P2;SDS_P1;SDS_P2;PMS_P1;PMS_P2;Temp;Humidity;BMP_temperature;BMP_pressure;BME280_temperature;BME280_humidity;BME280_pressure;Samples;Min_cycle;Max_cycle;Signal;HPM_P1;HPM_P2
2022/08/07 00:01:27;;;;;;;2.47;1.77;;;;;;;;;;5014574;28;20017;-65
2022/08/07 00:03:52;;;;;;;4.10;1.98;;;;;;;;;;5010620;28;20037;-65
2022/08/07 00:06:18;;;;;;;5.05;1.55;;;;;;;;;;5019684;28;20046;-65
2022/08/07 00:08:43;;;;;;;3.92;1.88;;;;;;;;;;5015117;28;20045;-65
2022/08/07 00:11:09;;;;;;;2.95;1.70;;;;;;;;;;5021446;28;20751;-65
2022/08/07 00:13:36;;;;;;;3.28;1.83;;;;;;;;;;5016133;28;20490;-65
2022/08/07 00:16:02;;;;;;;3.97;1.80;;;;;;;;;;5020788;28;20514;-65
2022/08/07 00:18:28;;;;;;;2.85;1.83;;;;;;;;;;5017219;28;20084;-65
2022/08/07 00:20:59;;;;;;;4.72;2.10;;;;;;;;;;5015569;28;20041;-65
2022/08/07 00:23:25;;;;;;;4.00;1.80;;;;;;;;;;5016841;28;20133;-65
2022/08/07 00:25:51;;;;;;;3.10;1.90;;;;;;;;;;5021899;28;20133;-65
2022/08/07 00:28:16;;;;;;;4.78;2.10;;;;;;;;;;5024622;28;20104;-65
2022/08/07 00:30:42;;;;;;;4.07;1.90;;;;;;;;;;5022505;28;20037;-65
2022/08/07 00:33:07;;;;;;;3.97;1.80;;;;;;;;;;5020685;28;20050;-65
2022/08/07 00:35:33;;;;;;;3.00;1.83;;;;;;;;;;5026802;28;20514;-65
2022/08/07 00:37:59;;;;;;;9.32;2.20;;;;;;;;;;5016712;28;20029;-65
2022/08/07 00:40:25;;;;;;;3.08;1.95;;;;;;;;;;5026450;28;20122;-65
2022/08/07 00:42:50;;;;;;;3.58;2.00;;;;;;;;;;5020637;28;20048;-65
2022/08/07 00:45:16;;;;;;;4.75;2.40;;;;;;;;;;5024924;28;20037;-65
2022/08/07 00:47:41;;;;;;;2.63;2.13;;;;;;;;;;5020638;28;21009;-65
2022/08/07 00:50:07;;;;;;;5.20;2.60;;;;;;;;;;5022129;28;20391;-65
2022/08/07 00:52:33;;;;;;;8.60;2.47;;;;;;;;;;5020596;28;20112;-65
2022/08/07 00:54:58;;;;;;;5.50;2.60;;;;;;;;;;5018119;28;20097;-65
2022/08/07 00:57:25;;;;;;;3.95;2.45;;;;;;;;;;5019524;28;20036;-65
2022/08/07 00:59:50;;;;;;;3.67;2.35;;;;;;;;;;5022460;28;20038;-65
2022/08/07 01:02:16;;;;;;;3.08;2.33;;;;;;;;;;5016708;28;20034;-65
2022/08/07 01:04:42;;;;;;;3.95;2.70;;;;;;;;;;5024586;28;20021;-65
2022/08/07 01:07:07;;;;;;;3.78;2.30;;;;;;;;;;5022080;28;20041;-65
2022/08/07 01:09:33;;;;;;;4.22;2.50;;;;;;;;;;5023175;28;20040;-65
2022/08/07 01:11:59;;;;;;;4.32;2.38;;;;;;;;;;5021330;28;20096;-65
2022/08/07 01:14:25;;;;;;;4.30;2.40;;;;;;;;;;5023247;28;20154;-65
2022/08/07 01:16:51;;;;;;;3.33;2.00;;;;;;;;;;5021943;28;20851;-65
2022/08/07 01:19:18;;;;;;;3.85;2.33;;;;;;;;;;5020916;28;20049;-65
2022/08/07 01:21:45;;;;;;;4.80;2.60;;;;;;;;;;5026000;28;20065;-65
2022/08/07 01:24:10;;;;;;;2.70;2.15;;;;;;;;;;5024413;28;20518;-65
2022/08/07 01:26:36;;;;;;;4.88;2.55;;;;;;;;;;5029928;28;20035;-65
2022/08/07 01:29:03;;;;;;;3.80;2.22;;;;;;;;;;5022935;28;20026;-65
2022/08/07 01:31:30;;;;;;;4.82;2.50;;;;;;;;;;5022410;28;20028;-65
2022/08/07 01:33:59;;;;;;;3.80;2.50;;;;;;;;;;5022752;28;20033;-65
2022/08/07 01:36:26;;;;;;;3.20;2.40;;;;;;;;;;5020410;28;20188;-65
2022/08/07 01:38:51;;;;;;;5.97;2.65;;;;;;;;;;5024179;28;20056;-65
2022/08/07 01:41:19;;;;;;;3.45;2.47;;;;;;;;;;5031177;28;20037;-65
2022/08/07 01:43:46;;;;;;;4.18;2.25;;;;;;;;;;5046724;28;20028;-65
2022/08/07 01:46:12;;;;;;;4.32;2.70;;;;;;;;;;5030177;28;20033;-65
2022/08/07 01:48:41;;;;;;;4.97;2.47;;;;;;;;;;5027389;28;20453;-65
2022/08/07 01:51:10;;;;;;;4.80;2.65;;;;;;;;;;5024994;28;20143;-65
2022/08/07 01:53:38;;;;;;;3.15;2.47;;;;;;;;;;5027315;28;20045;-65
2022/08/07 01:56:15;;;;;;;5.05;2.78;;;;;;;;;;5027804;28;20399;-65
2022/08/07 01:58:49;;;;;;;4.72;2.90;;;;;;;;;;5021452;28;20030;-65
2022/08/07 02:01:22;;;;;;;3.50;2.63;;;;;;;;;;5018736;28;20148;-65
2022/08/07 02:03:54;;;;;;;4.43;2.85;;;;;;;;;;5021222;28;20048;-65
2022/08/07 02:06:22;;;;;;;4.75;2.75;;;;;;;;;;5023830;28;20041;-65
2022/08/07 02:08:48;;;;;;;6.45;3.00;;;;;;;;;;5023457;28;20084;-65
2022/08/07 02:11:14;;;;;;;6.68;2.80;;;;;;;;;;5027465;28;20031;-65
2022/08/07 02:13:42;;;;;;;5.45;3.03;;;;;;;;;;5033046;28;20403;-65
2022/08/07 02:16:09;;;;;;;5.15;3.08;;;;;;;;;;5027540;28;20022;-65
2022/08/07 02:18:37;;;;;;;5.93;2.60;;;;;;;;;;5028523;28;20025;-65
2022/08/07 02:21:04;;;;;;;5.05;2.95;;;;;;;;;;5024669;28;20038;-65
2022/08/07 02:23:33;;;;;;;6.25;2.90;;;;;;;;;;5028469;28;20030;-65
2022/08/07 02:26:01;;;;;;;4.30;2.50;;;;;;;;;;5024455;28;20033;-65
2022/08/07 02:28:29;;;;;;;5.80;2.75;;;;;;;;;;5028657;28;20021;-65
2022/08/07 02:30:56;;;;;;;4.72;2.90;;;;;;;;;;5025191;28;20396;-65
2022/08/07 02:33:25;;;;;;;4.63;2.70;;;;;;;;;;5028263;28;20063;-65
2022/08/07 02:35:52;;;;;;;6.03;2.92;;;;;;;;;;5027417;28;20084;-65
2022/08/07 02:38:21;;;;;;;4.57;2.83;;;;;;;;;;5027013;28;20071;-65
2022/08/07 02:40:47;;;;;;;7.30;2.97;;;;;;;;;;5028403;28;20082;-65
2022/08/07 02:43:15;;;;;;;7.45;2.97;;;;;;;;;;5026354;28;20041;-65
2022/08/07 02:45:41;;;;;;;6.15;3.00;;;;;;;;;;5028678;28;20030;-65
2022/08/07 02:48:07;;;;;;;6.22;3.20;;;;;;;;;;5024203;28;20727;-65
2022/08/07 02:50:38;;;;;;;4.22;2.55;;;;;;;;;;5026373;28;20535;-65
2022/08/07 02:53:08;;;;;;;5.50;3.05;;;;;;;;;;5027678;28;20021;-65
2022/08/07 02:55:37;;;;;;;5.82;3.30;;;;;;;;;;5028012;28;20103;-65
2022/08/07 02:58:06;;;;;;;5.00;3.08;;;;;;;;;;5014556;28;20092;-65
2022/08/07 03:00:34;;;;;;;8.32;3.38;;;;;;;;;;5023091;28;20099;-65
2022/08/07 03:02:59;;;;;;;5.35;2.95;;;;;;;;;;5021560;28;20030;-65
2022/08/07 03:05:26;;;;;;;6.40;3.00;;;;;;;;;;5028717;28;20030;-65
2022/08/07 03:07:54;;;;;;;6.53;3.05;;;;;;;;;;5024521;28;20033;-65
2022/08/07 03:10:20;;;;;;;5.07;2.92;;;;;;;;;;5029222;28;20018;-65
2022/08/07 03:12:46;;;;;;;4.88;3.17;;;;;;;;;;5026085;28;20038;-65
2022/08/07 03:15:12;;;;;;;6.60;3.60;;;;;;;;;;5025382;28;20400;-65
2022/08/07 03:17:40;;;;;;;5.18;3.38;;;;;;;;;;5019290;28;20033;-65
2022/08/07 03:20:06;;;;;;;5.30;3.33;;;;;;;;;;5025906;28;20528;-65
2022/08/07 03:22:33;;;;;;;5.10;2.70;;;;;;;;;;5025445;28;20018;-65
2022/08/07 03:24:59;;;;;;;10.00;3.35;;;;;;;;;;5027880;28;20120;-65
2022/08/07 03:27:25;;;;;;;6.13;3.10;;;;;;;;;;5025303;28;20033;-64
2022/08/07 03:29:51;;;;;;;4.60;2.80;;;;;;;;;;5025409;28;20041;-65
2022/08/07 03:32:23;;;;;;;5.70;2.78;;;;;;;;;;5025297;28;20026;-65
2022/08/07 03:34:52;;;;;;;6.07;2.80;;;;;;;;;;5025432;28;20021;-65
2022/08/07 03:37:18;;;;;;;5.05;2.70;;;;;;;;;;5024396;28;20664;-65
2022/08/07 03:39:46;;;;;;;4.18;2.80;;;;;;;;;;5024291;28;20088;-65
2022/08/07 03:42:13;;;;;;;5.25;2.97;;;;;;;;;;5030395;28;20046;-65
2022/08/07 03:44:39;;;;;;;9.63;3.05;;;;;;;;;;5026089;28;20461;-65
2022/08/07 03:47:06;;;;;;;5.78;2.92;;;;;;;;;;5024113;28;20025;-65
2022/08/07 03:49:32;;;;;;;5.28;3.10;;;;;;;;;;5023969;28;20030;-65
2022/08/07 03:51:59;;;;;;;9.10;3.30;;;;;;;;;;5026704;28;20025;-65
2022/08/07 03:54:24;;;;;;;6.57;3.20;;;;;;;;;;5024760;28;20045;-65
2022/08/07 03:56:52;;;;;;;5.80;3.58;;;;;;;;;;5025942;28;20042;-65
2022/08/07 03:59:17;;;;;;;5.72;3.00;;;;;;;;;;5028549;28;20025;-65
2022/08/07 04:01:44;;;;;;;5.05;3.00;;;;;;;;;;5022644;28;20399;-65
2022/08/07 04:04:11;;;;;;;6.75;3.53;;;;;;;;;;5026773;28;20103;-65
2022/08/07 04:06:39;;;;;;;8.13;4.03;;;;;;;;;;5025959;28;20112;-65
2022/08/07 04:09:06;;;;;;;7.78;3.95;;;;;;;;;;5027531;28;20041;-65
2022/08/07 04:11:32;;;;;;;6.38;3.53;;;;;;;;;;5026815;28;20090;-65
2022/08/07 04:14:00;;;;;;;5.50;3.42;;;;;;;;;;5027718;28;20032;-65
2022/08/07 04:16:26;;;;;;;4.53;3.10;;;;;;;;;;5029334;28;20055;-64
2022/08/07 04:18:51;;;;;;;5.97;3.42;;;;;;;;;;5030746;28;20045;-65
2022/08/07 04:21:17;;;;;;;5.57;3.47;;;;;;;;;;5025149;28;20080;-65
2022/08/07 04:23:43;;;;;;;5.85;3.47;;;;;;;;;;5026900;28;20049;-65
2022/08/07 04:26:08;;;;;;;7.07;3.35;;;;;;;;;;5025709;28;20534;-65
2022/08/07 04:28:34;;;;;;;6.63;3.45;;;;;;;;;;5025306;28;20032;-65
2022/08/07 04:31:00;;;;;;;4.78;3.20;;;;;;;;;;5019340;28;20037;-65
2022/08/07 04:33:26;;;;;;;4.43;2.80;;;;;;;;;;5022695;28;20132;-65
2022/08/07 04:35:51;;;;;;;6.95;3.50;;;;;;;;;;5029535;28;20117;-65
2022/08/07 04:38:18;;;;;;;5.95;3.20;;;;;;;;;;5023013;28;20721;-65
2022/08/07 04:40:44;;;;;;;5.72;3.15;;;;;;;;;;5027233;28;20021;-65
2022/08/07 04:43:11;;;;;;;5.93;3.25;;;;;;;;;;5023255;28;20056;-65
2022/08/07 04:45:52;;;;;;;6.35;3.67;;;;;;;;;;5026174;28;20067;-65
2022/08/07 04:48:38;;;;;;;10.13;3.70;;;;;;;;;;5018634;28;20041;-65
2022/08/07 04:51:20;;;;;;;8.68;4.13;;;;;;;;;;5026380;28;20030;-65
2022/08/07 04:53:57;;;;;;;7.68;3.80;;;;;;;;;;5025874;28;20559;-65
2022/08/07 04:56:43;;;;;;;10.65;4.70;;;;;;;;;;5022722;28;20040;-65
2022/08/07 04:59:18;;;;;;;7.90;3.88;;;;;;;;;;5021150;28;20057;-65
2022/08/07 05:01:52;;;;;;;9.48;3.70;;;;;;;;;;5023124;28;20037;-65
2022/08/07 05:04:25;;;;;;;7.32;3.88;;;;;;;;;;5024839;28;20511;-65
2022/08/07 05:07:13;;;;;;;9.50;4.57;;;;;;;;;;5025667;28;20392;-65
2022/08/07 05:10:02;;;;;;;7.72;4.03;;;;;;;;;;5028181;28;20037;-65
2022/08/07 05:12:38;;;;;;;7.78;4.47;;;;;;;;;;5029521;28;20037;-65
2022/08/07 05:15:17;;;;;;;7.40;3.72;;;;;;;;;;5024064;28;20687;-65
2022/08/07 05:18:08;;;;;;;7.05;4.40;;;;;;;;;;5024446;28;20056;-65
2022/08/07 05:20:46;;;;;;;7.72;3.80;;;;;;;;;;5030188;28;20037;-65
2022/08/07 05:23:43;;;;;;;7.60;3.75;;;;;;;;;;5025729;28;20049;-65
2022/08/07 05:26:14;;;;;;;5.78;3.50;;;;;;;;;;5021137;28;20049;-65
2022/08/07 05:28:41;;;;;;;5.88;3.40;;;;;;;;;;5028601;28;20052;-65
2022/08/07 05:31:08;;;;;;;9.45;3.55;;;;;;;;;;5025603;28;20073;-65
2022/08/07 05:33:37;;;;;;;6.35;3.63;;;;;;;;;;5027348;28;20109;-65
2022/08/07 05:36:05;;;;;;;5.78;3.38;;;;;;;;;;5028704;28;20041;-65
2022/08/07 05:38:31;;;;;;;9.77;4.57;;;;;;;;;;5029798;28;20576;-65
2022/08/07 05:40:57;;;;;;;8.93;3.92;;;;;;;;;;5032534;28;20453;-65
2022/08/07 05:43:23;;;;;;;7.80;3.90;;;;;;;;;;5027718;28;20021;-65
2022/08/07 05:45:49;;;;;;;8.85;4.05;;;;;;;;;;5029086;28;20078;-65
2022/08/07 05:48:16;;;;;;;11.18;4.25;;;;;;;;;;5023291;28;20056;-65
2022/08/07 05:50:42;;;;;;;11.93;4.28;;;;;;;;;;5024742;28;20593;-65
2022/08/07 05:53:07;;;;;;;8.13;4.00;;;;;;;;;;5028489;28;20029;-65
2022/08/07 05:55:34;;;;;;;5.88;3.90;;;;;;;;;;5029541;28;20057;-65
2022/08/07 05:58:01;;;;;;;6.60;3.85;;;;;;;;;;5025924;28;20092;-65
2022/08/07 06:00:28;;;;;;;6.22;3.88;;;;;;;;;;5024549;28;20041;-65
2022/08/07 06:02:55;;;;;;;7.55;3.50;;;;;;;;;;5023893;28;20034;-65
2022/08/07 06:05:25;;;;;;;6.93;3.60;;;;;;;;;;5022363;28;20060;-65
2022/08/07 06:07:51;;;;;;;5.13;2.97;;;;;;;;;;5026286;28;20048;-65
2022/08/07 06:10:16;;;;;;;4.57;3.00;;;;;;;;;;5027210;28;20037;-65
2022/08/07 06:12:42;;;;;;;5.43;3.28;;;;;;;;;;5027582;28;20044;-65
2022/08/07 06:15:10;;;;;;;5.20;3.45;;;;;;;;;;5016857;28;20034;-65
2022/08/07 06:17:35;;;;;;;8.00;3.40;;;;;;;;;;5021673;28;20405;-65
2022/08/07 06:20:01;;;;;;;4.63;3.38;;;;;;;;;;5019983;28;20606;-65
2022/08/07 06:22:28;;;;;;;7.35;3.45;;;;;;;;;;5024611;28;20562;-65
2022/08/07 06:24:57;;;;;;;8.52;3.33;;;;;;;;;;5021969;28;20404;-65
2022/08/07 06:27:23;;;;;;;7.55;3.58;;;;;;;;;;5021586;28;20049;-65
2022/08/07 06:29:51;;;;;;;6.97;3.53;;;;;;;;;;5023627;28;20226;-65
2022/08/07 06:32:16;;;;;;;5.13;3.45;;;;;;;;;;5029668;28;20061;-65
2022/08/07 06:34:42;;;;;;;9.82;3.75;;;;;;;;;;5025473;28;20136;-65
2022/08/07 06:37:07;;;;;;;6.13;3.10;;;;;;;;;;5029452;28;20103;-65
2022/08/07 06:39:32;;;;;;;6.55;3.10;;;;;;;;;;5028969;28;20118;-65
2022/08/07 06:42:20;;;;;;;6.20;3.20;;;;;;;;;;5032215;28;20069;-65
2022/08/07 06:44:48;;;;;;;5.10;2.95;;;;;;;;;;5026483;28;20095;-65
2022/08/07 06:47:14;;;;;;;8.80;3.20;;;;;;;;;;5027138;28;20041;-65
2022/08/07 06:49:40;;;;;;;6.75;3.38;;;;;;;;;;5026914;28;20032;-65
2022/08/07 06:52:07;;;;;;;6.80;3.78;;;;;;;;;;5011916;28;20033;-65
2022/08/07 06:54:33;;;;;;;6.38;3.38;;;;;;;;;;5016619;28;20061;-65
2022/08/07 06:56:59;;;;;;;7.82;3.70;;;;;;;;;;5018834;28;20053;-65
2022/08/07 06:59:28;;;;;;;5.80;3.40;;;;;;;;;;5018968;28;20167;-65
2022/08/07 07:01:56;;;;;;;11.30;3.88;;;;;;;;;;5020140;28;20060;-65
2022/08/07 07:04:22;;;;;;;7.03;3.63;;;;;;;;;;5016331;28;20591;-65
2022/08/07 07:06:48;;;;;;;5.40;3.28;;;;;;;;;;5014072;28;20538;-65
2022/08/07 07:09:26;;;;;;;5.45;3.10;;;;;;;;;;5016793;28;20128;-65
2022/08/07 07:12:01;;;;;;;5.13;2.80;;;;;;;;;;5015469;28;21316;-65
2022/08/07 07:14:30;;;;;;;11.15;2.80;;;;;;;;;;5014055;28;20037;-65
2022/08/07 07:17:01;;;;;;;8.63;3.38;;;;;;;;;;5012328;28;20032;-65
2022/08/07 07:19:35;;;;;;;4.65;2.75;;;;;;;;;;5014229;28;20037;-65
2022/08/07 07:22:01;;;;;;;4.40;2.58;;;;;;;;;;5013402;28;20099;-65
2022/08/07 07:24:27;;;;;;;6.10;2.83;;;;;;;;;;5012045;28;20065;-65
2022/08/07 07:26:55;;;;;;;9.13;2.60;;;;;;;;;;5014559;28;20245;-65
2022/08/07 07:29:24;;;;;;;10.13;2.78;;;;;;;;;;5014143;28;20128;-65
2022/08/07 07:31:54;;;;;;;5.70;3.10;;;;;;;;;;5014499;28;20025;-65
2022/08/07 07:34:25;;;;;;;4.38;2.30;;;;;;;;;;5012136;28;20037;-65
2022/08/07 07:36:52;;;;;;;5.90;2.75;;;;;;;;;;5013100;28;20059;-65
2022/08/07 07:39:20;;;;;;;6.15;2.60;;;;;;;;;;5015670;28;20128;-65
2022/08/07 07:41:49;;;;;;;7.60;3.10;;;;;;;;;;5011422;28;20183;-65
2022/08/07 07:44:17;;;;;;;3.35;2.38;;;;;;;;;;5013755;28;20132;-65
2022/08/07 07:46:43;;;;;;;4.50;2.47;;;;;;;;;;5013320;28;20037;-65
2022/08/07 07:49:10;;;;;;;4.55;2.30;;;;;;;;;;5017801;28;20073;-65
2022/08/07 07:51:37;;;;;;;4.10;2.38;;;;;;;;;;5016053;28;20429;-65
2022/08/07 07:54:04;;;;;;;3.60;2.40;;;;;;;;;;5018057;28;20111;-65
2022/08/07 07:56:31;;;;;;;4.63;2.60;;;;;;;;;;5017520;28;20050;-65
2022/08/07 07:59:01;;;;;;;7.35;2.85;;;;;;;;;;5017755;28;20512;-65
2022/08/07 08:01:28;;;;;;;4.15;2.45;;;;;;;;;;5018424;28;20029;-64
2022/08/07 08:03:55;;;;;;;2.90;2.20;;;;;;;;;;5021906;28;20517;-65
2022/08/07 08:06:23;;;;;;;3.53;2.63;;;;;;;;;;5017360;28;20049;-65
2022/08/07 08:08:50;;;;;;;3.53;2.20;;;;;;;;;;5022030;28;20044;-65
2022/08/07 08:11:15;;;;;;;4.20;2.42;;;;;;;;;;5019756;28;20038;-65
2022/08/07 08:13:43;;;;;;;4.57;2.00;;;;;;;;;;5016673;28;20029;-65
2022/08/07 08:16:13;;;;;;;3.70;2.40;;;;;;;;;;5018373;28;20049;-65
2022/08/07 08:18:38;;;;;;;3.08;2.20;;;;;;;;;;5015476;28;20037;-65
2022/08/07 08:21:05;;;;;;;3.55;2.15;;;;;;;;;;5007442;28;20049;-65
2022/08/07 08:29:03;;;;;;;3.38;1.90;;;;;;;;;;5023800;28;20045;-65
2022/08/07 08:31:32;;;;;;;6.07;2.25;;;;;;;;;;5017882;28;20029;-65
2022/08/07 08:34:00;;;;;;;4.85;2.25;;;;;;;;;;5013266;28;20037;-65
2022/08/07 08:36:29;;;;;;;3.13;2.40;;;;;;;;;;5014501;28;21536;-65
2022/08/07 08:38:56;;;;;;;6.90;2.50;;;;;;;;;;5014712;28;20052;-65
2022/08/07 08:41:46;;;;;;;5.97;2.47;;;;;;;;;;5013018;28;20045;-65
2022/08/07 08:44:32;;;;;;;2.75;1.90;;;;;;;;;;5013646;28;20065;-65
2022/08/07 08:47:26;;;;;;;3.50;2.40;;;;;;;;;;5011537;28;20063;-65
2022/08/07 08:50:12;;;;;;;;;;;;;;;;;;5024585;28;20418;-65
2022/08/07 08:52:43;;;;;;;4.72;2.55;;;;;;;;;;5015234;28;20426;-65
2022/08/07 08:56:00;;;;;;;4.18;2.40;;;;;;;;;;5020738;28;20056;-65
2022/08/07 08:58:47;;;;;;;8.65;3.35;;;;;;;;;;4999549;28;20041;-65
2022/08/07 09:01:23;;;;;;;3.50;2.60;;;;;;;;;;5015399;28;20045;-65
2022/08/07 09:04:03;;;;;;;5.10;2.70;;;;;;;;;;5016603;28;20079;-65
2022/08/07 09:06:55;;;;;;;4.45;2.63;;;;;;;;;;5022396;28;20422;-65
2022/08/07 09:09:20;;;;;;;4.78;2.60;;;;;;;;;;5015420;28;20044;-65
2022/08/07 09:11:57;;;;;;;8.77;2.60;;;;;;;;;;5014283;28;20033;-65
2022/08/07 09:14:31;;;;;;;4.20;2.55;;;;;;;;;;5014916;28;20036;-65
2022/08/07 09:17:15;;;;;;;6.15;3.03;;;;;;;;;;5015975;28;20040;-65
2022/08/07 09:19:56;;;;;;;4.55;2.88;;;;;;;;;;5017468;28;20021;-65
2022/08/07 09:22:50;;;;;;;7.07;3.30;;;;;;;;;;5016843;28;20120;-65
2022/08/07 09:25:22;;;;;;;3.05;2.20;;;;;;;;;;5022231;28;20573;-65
2022/08/07 09:28:00;;;;;;;4.47;2.92;;;;;;;;;;5018192;28;20053;-65
2022/08/07 09:30:33;;;;;;;3.83;2.78;;;;;;;;;;5015792;28;20144;-65
2022/08/07 09:33:23;;;;;;;4.78;2.58;;;;;;;;;;5016892;28;20530;-65
2022/08/07 09:36:05;;;;;;;9.93;2.65;;;;;;;;;;5012606;28;20043;-65
2022/08/07 09:38:43;;;;;;;4.90;2.42;;;;;;;;;;5014714;28;20584;-65
2022/08/07 09:41:22;;;;;;;5.97;2.63;;;;;;;;;;5018511;28;20022;-65
2022/08/07 09:44:26;;;;;;;5.03;2.20;;;;;;;;;;5014449;28;20025;-65
2022/08/07 09:47:07;;;;;;;5.53;2.50;;;;;;;;;;5014895;28;20046;-65
2022/08/07 09:49:39;;;;;;;3.45;2.00;;;;;;;;;;5016761;28;20033;-65
2022/08/07 09:52:15;;;;;;;3.28;2.03;;;;;;;;;;5019090;28;20042;-65
2022/08/07 09:54:48;;;;;;;4.93;2.10;;;;;;;;;;5018679;28;20050;-65
2022/08/07 09:57:32;;;;;;;4.20;2.40;;;;;;;;;;5018205;28;21267;-65
2022/08/07 10:00:02;;;;;;;5.78;2.22;;;;;;;;;;5008821;28;20567;-65
2022/08/07 10:03:05;;;;;;;2.50;1.75;;;;;;;;;;5015517;28;20114;-65
2022/08/07 10:06:00;;;;;;;3.60;2.40;;;;;;;;;;5016609;28;20068;-65
2022/08/07 10:08:38;;;;;;;2.90;1.90;;;;;;;;;;5020517;28;20069;-65
2022/08/07 10:11:28;;;;;;;3.10;1.90;;;;;;;;;;5020610;28;20080;-65
2022/08/07 10:14:06;;;;;;;2.53;1.77;;;;;;;;;;5017016;28;20032;-65
2022/08/07 10:16:34;;;;;;;1.92;1.55;;;;;;;;;;5021674;28;20040;-65
2022/08/07 10:19:20;;;;;;;2.85;2.05;;;;;;;;;;5016630;28;20063;-65
2022/08/07 10:22:06;;;;;;;2.58;1.80;;;;;;;;;;5018559;28;20065;-65
2022/08/07 10:24:44;;;;;;;3.03;1.70;;;;;;;;;;5017735;28;20153;-65
2022/08/07 10:27:16;;;;;;;2.67;1.80;;;;;;;;;;5024333;28;20542;-65
2022/08/07 10:30:05;;;;;;;2.83;1.95;;;;;;;;;;5028226;28;20086;-65
2022/08/07 10:32:48;;;;;;;5.90;2.03;;;;;;;;;;5025277;28;20037;-65
2022/08/07 10:35:35;;;;;;;3.28;2.15;;;;;;;;;;5027317;28;20045;-65
2022/08/07 10:38:21;;;;;;;3.55;1.70;;;;;;;;;;5026949;28;20442;-65
2022/08/07 10:40:51;;;;;;;2.75;1.77;;;;;;;;;;5031550;28;20029;-65
2022/08/07 10:43:32;;;;;;;3.85;1.88;;;;;;;;;;5016645;28;20046;-65
2022/08/07 10:46:00;;;;;;;5.43;2.10;;;;;;;;;;5018640;28;20041;-65
2022/08/07 10:48:37;;;;;;;5.63;2.45;;;;;;;;;;5014838;28;20045;-65
2022/08/07 10:51:13;;;;;;;2.03;1.60;;;;;;;;;;5016533;28;20434;-65
2022/08/07 10:53:51;;;;;;;3.75;2.35;;;;;;;;;;5015244;28;20073;-65
2022/08/07 10:56:35;;;;;;;3.83;1.88;;;;;;;;;;5020428;28;20041;-65
2022/08/07 10:59:07;;;;;;;3.72;2.00;;;;;;;;;;5020161;28;20059;-65
2022/08/07 11:01:37;;;;;;;2.65;1.98;;;;;;;;;;5016252;28;20029;-65
2022/08/07 11:04:28;;;;;;;4.45;2.15;;;;;;;;;;5018466;28;20045;-65
2022/08/07 11:07:44;;;;;;;4.18;2.30;;;;;;;;;;5016779;28;20144;-65
2022/08/07 11:10:34;;;;;;;2.72;2.00;;;;;;;;;;5010552;28;20055;-65
2022/08/07 11:13:07;;;;;;;4.88;2.25;;;;;;;;;;5005830;28;20830;-65
2022/08/07 11:15:37;;;;;;;3.28;1.80;;;;;;;;;;5018492;28;20042;-65
2022/08/07 11:18:13;;;;;;;3.53;1.80;;;;;;;;;;5017668;28;20287;-65
2022/08/07 11:21:01;;;;;;;2.65;1.73;;;;;;;;;;5014582;28;20677;-65
2022/08/07 11:23:42;;;;;;;3.38;2.00;;;;;;;;;;5018974;28;20083;-65
2022/08/07 11:26:16;;;;;;;3.35;1.90;;;;;;;;;;5013949;28;20025;-65
2022/08/07 11:29:00;;;;;;;4.63;2.10;;;;;;;;;;5019225;28;20032;-65
2022/08/07 11:31:49;;;;;;;2.35;1.63;;;;;;;;;;5025486;28;20037;-65
2022/08/07 11:34:23;;;;;;;2.80;1.50;;;;;;;;;;5022871;28;20076;-65
2022/08/07 11:37:01;;;;;;;2.72;1.90;;;;;;;;;;5027971;28;20056;-65
2022/08/07 11:39:45;;;;;;;2.35;1.70;;;;;;;;;;5023650;28;20465;-65
2022/08/07 11:42:56;;;;;;;2.80;1.88;;;;;;;;;;5026670;28;20075;-65
2022/08/07 11:45:37;;;;;;;3.05;1.77;;;;;;;;;;5028622;28;20077;-65
2022/08/07 11:48:29;;;;;;;2.83;1.70;;;;;;;;;;5042687;28;20037;-65
2022/08/07 11:51:15;;;;;;;2.30;1.65;;;;;;;;;;5008769;28;20064;-66
2022/08/07 11:53:50;;;;;;;2.13;1.52;;;;;;;;;;5025077;28;20033;-65
2022/08/07 11:56:39;;;;;;;5.78;1.60;;;;;;;;;;5025216;28;20036;-65
2022/08/07 11:59:52;;;;;;;2.63;1.40;;;;;;;;;;5023091;28;20044;-65
2022/08/07 12:02:27;;;;;;;1.90;1.50;;;;;;;;;;5026713;28;20530;-65
2022/08/07 12:05:00;;;;;;;1.70;1.52;;;;;;;;;;5020162;28;20049;-65
2022/08/07 12:07:33;;;;;;;2.92;1.60;;;;;;;;;;5021885;28;20021;-65
2022/08/07 12:10:02;;;;;;;2.43;1.80;;;;;;;;;;5032685;28;20034;-66
2022/08/07 12:12:38;;;;;;;2.17;1.75;;;;;;;;;;5018003;28;20034;-65
2022/08/07 12:15:09;;;;;;;7.30;1.70;;;;;;;;;;5023888;28;20575;-66
2022/08/07 12:17:48;;;;;;;2.83;1.55;;;;;;;;;;5022582;28;20624;-65
2022/08/07 12:20:34;;;;;;;2.00;1.60;;;;;;;;;;5023405;28;20089;-65
2022/08/07 12:23:21;;;;;;;2.13;1.48;;;;;;;;;;5021507;28;20025;-65
2022/08/07 12:25:59;;;;;;;3.47;1.95;;;;;;;;;;5021506;28;20120;-65
2022/08/07 12:29:03;;;;;;;3.08;1.80;;;;;;;;;;5021448;28;20041;-65
2022/08/07 12:31:42;;;;;;;3.78;1.60;;;;;;;;;;5027201;28;20530;-65
2022/08/07 12:34:10;;;;;;;3.03;1.60;;;;;;;;;;5024122;28;20033;-66
2022/08/07 12:36:37;;;;;;;2.00;1.50;;;;;;;;;;5023894;28;20076;-65
2022/08/07 12:39:07;;;;;;;1.85;1.50;;;;;;;;;;5022868;28;20076;-65
2022/08/07 12:41:35;;;;;;;1.42;1.23;;;;;;;;;;5021618;28;20080;-65
2022/08/07 12:44:05;;;;;;;2.95;1.50;;;;;;;;;;5021880;28;20777;-65
2022/08/07 12:46:52;;;;;;;1.77;1.40;;;;;;;;;;5023601;28;20033;-66
2022/08/07 12:49:34;;;;;;;4.50;1.65;;;;;;;;;;5025790;28;20486;-65
2022/08/07 12:52:05;;;;;;;2.17;1.60;;;;;;;;;;5022322;28;20040;-66
2022/08/07 12:54:38;;;;;;;4.72;1.80;;;;;;;;;;5020875;28;20042;-65
2022/08/07 12:57:05;;;;;;;2.95;1.50;;;;;;;;;;5020269;28;20045;-65
2022/08/07 12:59:34;;;;;;;2.47;1.70;;;;;;;;;;5023448;28;20060;-65
2022/08/07 13:02:41;;;;;;;2.97;1.60;;;;;;;;;;5019889;28;20121;-66
2022/08/07 13:05:20;;;;;;;2.85;1.63;;;;;;;;;;5018333;28;20038;-65
2022/08/07 13:08:21;;;;;;;2.63;1.88;;;;;;;;;;5019478;28;20534;-65
2022/08/07 13:10:59;;;;;;;1.90;1.70;;;;;;;;;;5008762;28;20041;-65
2022/08/07 13:13:48;;;;;;;3.38;1.85;;;;;;;;;;5019522;28;20037;-65
2022/08/07 13:16:16;;;;;;;3.97;1.50;;;;;;;;;;5022433;28;20045;-65
2022/08/07 13:18:47;;;;;;;2.05;1.60;;;;;;;;;;5022302;28;20044;-65
2022/08/07 13:22:29;;;;;;;4.50;1.75;;;;;;;;;;5024293;28;20053;-66
2022/08/07 13:25:16;;;;;;;2.53;1.80;;;;;;;;;;4971611;28;20074;-65
2022/08/07 13:27:55;;;;;;;2.70;1.80;;;;;;;;;;5000747;28;20069;-65
2022/08/07 13:30:22;;;;;;;2.20;1.67;;;;;;;;;;5017224;28;20046;-66
2022/08/07 13:32:58;;;;;;;2.65;2.15;;;;;;;;;;5016838;28;20076;-66
2022/08/07 13:35:40;;;;;;;3.65;2.00;;;;;;;;;;5024239;28;20053;-66
2022/08/07 13:38:20;;;;;;;3.03;2.05;;;;;;;;;;5024671;28;20666;-65
2022/08/07 13:40:53;;;;;;;2.67;1.70;;;;;;;;;;5020239;28;20025;-66
2022/08/07 13:43:19;;;;;;;;;;;;;;;;;;5016118;28;20056;-66
2022/08/07 13:45:51;;;;;;;3.40;1.83;;;;;;;;;;5026950;28;19917;-66
2022/08/07 13:48:20;;;;;;;3.63;1.97;;;;;;;;;;5029188;28;20034;-66
2022/08/07 13:50:48;;;;;;;2.60;1.85;;;;;;;;;;5017117;28;20056;-66
2022/08/07 13:53:21;;;;;;;7.20;1.70;;;;;;;;;;5021672;28;20049;-66
2022/08/07 13:55:47;;;;;;;2.17;1.60;;;;;;;;;;5023175;28;20041;-65
2022/08/07 14:01:09;;;;;;;1.83;1.52;;;;;;;;;;5023513;28;20093;-65
2022/08/07 14:03:39;;;;;;;2.15;1.60;;;;;;;;;;5023796;28;20041;-66
2022/08/07 14:06:05;;;;;;;3.13;1.50;;;;;;;;;;5026376;28;20040;-66
2022/08/07 14:08:33;;;;;;;3.13;1.70;;;;;;;;;;5020088;28;20030;-66
2022/08/07 14:11:01;;;;;;;2.15;1.60;;;;;;;;;;5022010;28;20022;-65
2022/08/07 14:13:30;;;;;;;3.67;1.60;;;;;;;;;;5023668;28;20021;-67
2022/08/07 14:16:01;;;;;;;1.60;1.50;;;;;;;;;;5026842;28;20087;-65
2022/08/07 14:18:36;;;;;;;3.13;1.88;;;;;;;;;;5027827;28;20454;-67
2022/08/07 14:21:12;;;;;;;2.28;1.80;;;;;;;;;;5029251;28;20511;-65
2022/08/07 14:23:43;;;;;;;2.80;1.60;;;;;;;;;;5025109;28;20079;-66
2022/08/07 14:26:14;;;;;;;2.60;1.75;;;;;;;;;;5022033;28;20392;-65
2022/08/07 14:28:44;;;;;;;2.90;1.52;;;;;;;;;;5022247;28;20021;-65
2022/08/07 14:31:12;;;;;;;1.70;1.60;;;;;;;;;;5027056;28;20052;-66
2022/08/07 14:33:38;;;;;;;3.42;1.88;;;;;;;;;;5022664;28;20166;-65
2022/08/07 14:36:06;;;;;;;2.42;1.88;;;;;;;;;;5029830;28;20029;-66
2022/08/07 14:38:32;;;;;;;1.83;1.50;;;;;;;;;;5022308;28;20041;-66
2022/08/07 14:41:04;;;;;;;6.00;1.80;;;;;;;;;;5024661;28;20566;-65
2022/08/07 14:43:33;;;;;;;2.80;1.77;;;;;;;;;;5030093;28;20029;-65
2022/08/07 14:46:00;;;;;;;3.55;1.77;;;;;;;;;;5027442;28;20033;-66
2022/08/07 14:48:28;;;;;;;2.78;1.90;;;;;;;;;;5023269;28;20526;-65
2022/08/07 14:51:02;;;;;;;2.33;2.10;;;;;;;;;;5019922;28;20416;-65
2022/08/07 14:53:31;;;;;;;1.92;1.70;;;;;;;;;;5021888;28;20111;-65
2022/08/07 14:56:02;;;;;;;3.13;1.90;;;;;;;;;;5026444;28;20502;-65
2022/08/07 14:58:32;;;;;;;1.67;1.40;;;;;;;;;;5025759;28;20049;-65
2022/08/07 15:00:59;;;;;;;3.58;1.50;;;;;;;;;;5024718;28;20164;-65
2022/08/07 15:03:27;;;;;;;1.80;1.33;;;;;;;;;;5026215;28;20045;-65
2022/08/07 15:05:53;;;;;;;2.00;1.52;;;;;;;;;;5029377;28;20034;-65
2022/08/07 15:08:45;;;;;;;2.50;1.58;;;;;;;;;;5027807;28;20090;-65
2022/08/07 15:11:13;;;;;;;2.28;1.58;;;;;;;;;;5019459;28;20064;-66
2022/08/07 15:13:51;;;;;;;2.30;1.58;;;;;;;;;;5020983;28;20041;-65
2022/08/07 15:16:16;;;;;;;2.60;1.65;;;;;;;;;;5020484;28;20132;-65
2022/08/07 15:18:44;;;;;;;2.53;1.60;;;;;;;;;;5023202;28;20120;-66
2022/08/07 15:21:19;;;;;;;2.90;1.65;;;;;;;;;;5022211;28;20037;-65
2022/08/07 15:23:48;;;;;;;3.40;1.63;;;;;;;;;;5026651;28;20030;-66